sensor_id;sensor_type;location;lat;lon;timestamp;P1;durP1;ratioP1;P2;durP2;ratioP2
22603;SDS011;11469;49.024;8.246;2023-02-22T00:00:37;8.70;;;4.15;;
22603;SDS011;11469;49.024;8.246;2023-02-22T00:03:13;5.40;;;3.38;;
22603;SDS011;11469;49.024;8.246;2023-02-22T00:06:14;7.07;;;3.08;;
22603;SDS011;11469;49.024;8.246;2023-02-22T00:08:40;8.57;;;3.40;;
22603;SDS011;11469;49.024;8.246;2023-02-22T00:11:06;5.13;;;2.80;;
22603;SDS011;11469;49.024;8.246;2023-02-22T00:13:32;7.47;;;3.40;;
22603;SDS011;11469;49.024;8.246;2023-02-22T00:15:58;6.70;;;3.38;;
22603;SDS011;11469;49.024;8.246;2023-02-22T00:18:24;6.20;;;3.22;;
22603;SDS011;11469;49.024;8.246;2023-02-22T00:20:56;8.57;;;3.40;;
22603;SDS011;11469;49.024;8.246;2023-02-22T00:23:27;13.85;;;4.47;;
22603;SDS011;11469;49.024;8.246;2023-02-22T00:25:54;9.55;;;3.40;;
22603;SDS011;11469;49.024;8.246;2023-02-22T00:28:20;7.20;;;3.60;;
22603;SDS011;11469;49.024;8.246;2023-02-22T00:30:48;7.50;;;3.85;;
22603;SDS011;11469;49.024;8.246;2023-02-22T00:33:14;10.82;;;4.38;;
22603;SDS011;11469;49.024;8.246;2023-02-22T00:35:40;12.88;;;5.28;;
22603;SDS011;11469;49.024;8.246;2023-02-22T00:38:10;11.25;;;5.68;;
22603;SDS011;11469;49.024;8.246;2023-02-22T00:40:36;16.38;;;6.05;;
22603;SDS011;11469;49.024;8.246;2023-02-22T00:43:02;19.35;;;6.78;;
22603;SDS011;11469;49.024;8.246;2023-02-22T00:45:29;13.18;;;5.32;;
22603;SDS011;11469;49.024;8.246;2023-02-22T00:47:56;12.52;;;6.00;;
22603;SDS011;11469;49.024;8.246;2023-02-22T00:50:22;15.00;;;5.50;;
22603;SDS011;11469;49.024;8.246;2023-02-22T00:52:50;15.13;;;5.82;;
22603;SDS011;11469;49.024;8.246;2023-02-22T00:55:21;13.93;;;6.38;;
22603;SDS011;11469;49.024;8.246;2023-02-22T00:57:48;14.73;;;6.20;;
22603;SDS011;11469;49.024;8.246;2023-02-22T01:00:25;15.43;;;5.88;;
22603;SDS011;11469;49.024;8.246;2023-02-22T01:02:52;9.15;;;4.93;;
22603;SDS011;11469;49.024;8.246;2023-02-22T01:05:21;10.63;;;5.50;;
22603;SDS011;11469;49.024;8.246;2023-02-22T01:07:48;21.30;;;8.23;;
22603;SDS011;11469;49.024;8.246;2023-02-22T01:10:14;11.15;;;4.90;;
22603;SDS011;11469;49.024;8.246;2023-02-22T01:12:41;10.60;;;5.32;;
22603;SDS011;11469;49.024;8.246;2023-02-22T01:15:08;12.77;;;6.22;;
22603;SDS011;11469;49.024;8.246;2023-02-22T01:17:35;12.57;;;6.82;;
22603;SDS011;11469;49.024;8.246;2023-02-22T01:20:03;16.02;;;8.90;;
22603;SDS011;11469;49.024;8.246;2023-02-22T01:22:37;20.35;;;9.38;;
22603;SDS011;11469;49.024;8.246;2023-02-22T01:25:07;9.73;;;5.68;;
22603;SDS011;11469;49.024;8.246;2023-02-22T01:27:35;7.28;;;4.10;;
22603;SDS011;11469;49.024;8.246;2023-02-22T01:30:02;10.05;;;3.78;;
22603;SDS011;11469;49.024;8.246;2023-02-22T01:32:33;8.18;;;4.00;;
22603;SDS011;11469;49.024;8.246;2023-02-22T01:34:59;7.70;;;3.50;;
22603;SDS011;11469;49.024;8.246;2023-02-22T01:37:25;9.90;;;4.07;;
22603;SDS011;11469;49.024;8.246;2023-02-22T01:39:50;10.32;;;4.32;;
22603;SDS011;11469;49.024;8.246;2023-02-22T01:42:15;6.85;;;3.95;;
22603;SDS011;11469;49.024;8.246;2023-02-22T01:44:41;10.18;;;4.72;;
22603;SDS011;11469;49.024;8.246;2023-02-22T01:47:06;8.25;;;4.40;;
22603;SDS011;11469;49.024;8.246;2023-02-22T01:49:38;9.52;;;4.55;;
22603;SDS011;11469;49.024;8.246;2023-02-22T01:52:10;7.55;;;4.07;;
22603;SDS011;11469;49.024;8.246;2023-02-22T01:54:43;8.95;;;4.20;;
22603;SDS011;11469;49.024;8.246;2023-02-22T01:57:23;8.88;;;4.63;;
22603;SDS011;11469;49.024;8.246;2023-02-22T01:59:56;8.48;;;4.07;;
22603;SDS011;11469;49.024;8.246;2023-02-22T02:02:24;9.75;;;3.63;;
22603;SDS011;11469;49.024;8.246;2023-02-22T02:04:50;7.13;;;4.22;;
22603;SDS011;11469;49.024;8.246;2023-02-22T02:07:19;9.63;;;4.53;;
22603;SDS011;11469;49.024;8.246;2023-02-22T02:12:28;8.07;;;4.05;;
22603;SDS011;11469;49.024;8.246;2023-02-22T02:17:40;12.17;;;4.00;;
22603;SDS011;11469;49.024;8.246;2023-02-22T02:34:30;8.68;;;4.10;;
22603;SDS011;11469;49.024;8.246;2023-02-22T02:39:59;9.57;;;4.22;;
22603;SDS011;11469;49.024;8.246;2023-02-22T02:42:39;8.85;;;4.15;;
22603;SDS011;11469;49.024;8.246;2023-02-22T02:45:16;8.32;;;4.13;;
22603;SDS011;11469;49.024;8.246;2023-02-22T02:47:48;13.80;;;3.92;;
22603;SDS011;11469;49.024;8.246;2023-02-22T02:50:28;8.77;;;3.90;;
22603;SDS011;11469;49.024;8.246;2023-02-22T02:52:58;11.82;;;4.05;;
22603;SDS011;11469;49.024;8.246;2023-02-22T02:55:28;6.05;;;3.97;;
22603;SDS011;11469;49.024;8.246;2023-02-22T02:57:56;11.98;;;4.00;;
22603;SDS011;11469;49.024;8.246;2023-02-22T03:00:25;15.13;;;4.25;;
22603;SDS011;11469;49.024;8.246;2023-02-22T03:06:20;9.45;;;3.78;;
22603;SDS011;11469;49.024;8.246;2023-02-22T03:11:53;7.75;;;3.95;;
22603;SDS011;11469;49.024;8.246;2023-02-22T03:17:39;8.38;;;3.92;;
22603;SDS011;11469;49.024;8.246;2023-02-22T03:20:11;13.65;;;4.65;;
22603;SDS011;11469;49.024;8.246;2023-02-22T03:22:56;7.35;;;4.30;;
22603;SDS011;11469;49.024;8.246;2023-02-22T03:25:35;7.72;;;4.35;;
22603;SDS011;11469;49.024;8.246;2023-02-22T03:28:05;9.30;;;4.70;;
22603;SDS011;11469;49.024;8.246;2023-02-22T03:30:37;11.45;;;4.18;;
22603;SDS011;11469;49.024;8.246;2023-02-22T03:33:10;8.02;;;4.43;;
22603;SDS011;11469;49.024;8.246;2023-02-22T03:35:41;8.38;;;4.32;;
22603;SDS011;11469;49.024;8.246;2023-02-22T03:38:13;7.05;;;4.10;;
22603;SDS011;11469;49.024;8.246;2023-02-22T03:40:44;9.30;;;4.13;;
22603;SDS011;11469;49.024;8.246;2023-02-22T03:43:14;8.05;;;4.13;;
22603;SDS011;11469;49.024;8.246;2023-02-22T03:45:43;18.65;;;4.85;;
22603;SDS011;11469;49.024;8.246;2023-02-22T03:50:47;7.45;;;4.07;;
22603;SDS011;11469;49.024;8.246;2023-02-22T03:53:15;13.02;;;4.22;;
22603;SDS011;11469;49.024;8.246;2023-02-22T03:55:42;8.35;;;4.03;;
22603;SDS011;11469;49.024;8.246;2023-02-22T03:58:09;8.75;;;4.45;;
22603;SDS011;11469;49.024;8.246;2023-02-22T04:00:39;9.30;;;4.00;;
22603;SDS011;11469;49.024;8.246;2023-02-22T04:03:08;18.70;;;4.93;;
22603;SDS011;11469;49.024;8.246;2023-02-22T04:05:34;9.05;;;4.55;;
22603;SDS011;11469;49.024;8.246;2023-02-22T04:07:59;12.30;;;4.20;;
22603;SDS011;11469;49.024;8.246;2023-02-22T04:10:24;7.80;;;4.65;;
22603;SDS011;11469;49.024;8.246;2023-02-22T04:12:50;14.70;;;5.40;;
22603;SDS011;11469;49.024;8.246;2023-02-22T04:15:17;9.15;;;4.57;;
22603;SDS011;11469;49.024;8.246;2023-02-22T04:17:45;11.20;;;4.80;;
22603;SDS011;11469;49.024;8.246;2023-02-22T04:20:10;9.27;;;4.32;;
22603;SDS011;11469;49.024;8.246;2023-02-22T04:22:38;12.68;;;5.93;;
22603;SDS011;11469;49.024;8.246;2023-02-22T04:25:03;10.52;;;4.80;;
22603;SDS011;11469;49.024;8.246;2023-02-22T04:27:29;12.65;;;4.78;;
22603;SDS011;11469;49.024;8.246;2023-02-22T04:29:54;15.55;;;5.28;;
22603;SDS011;11469;49.024;8.246;2023-02-22T04:32:20;12.75;;;5.10;;
22603;SDS011;11469;49.024;8.246;2023-02-22T04:34:45;8.40;;;4.57;;
22603;SDS011;11469;49.024;8.246;2023-02-22T04:37:10;8.65;;;4.28;;
22603;SDS011;11469;49.024;8.246;2023-02-22T04:39:36;11.30;;;4.93;;
22603;SDS011;11469;49.024;8.246;2023-02-22T04:42:02;10.48;;;4.50;;
22603;SDS011;11469;49.024;8.246;2023-02-22T04:44:28;12.45;;;4.80;;
22603;SDS011;11469;49.024;8.246;2023-02-22T04:46:53;10.63;;;4.85;;
22603;SDS011;11469;49.024;8.246;2023-02-22T04:49:20;9.82;;;4.75;;
22603;SDS011;11469;49.024;8.246;2023-02-22T04:51:45;10.07;;;5.00;;
22603;SDS011;11469;49.024;8.246;2023-02-22T04:54:10;9.60;;;4.63;;
22603;SDS011;11469;49.024;8.246;2023-02-22T04:56:37;11.85;;;4.32;;
22603;SDS011;11469;49.024;8.246;2023-02-22T04:59:03;10.48;;;4.90;;
22603;SDS011;11469;49.024;8.246;2023-02-22T05:01:32;12.05;;;4.63;;
22603;SDS011;11469;49.024;8.246;2023-02-22T05:04:00;10.93;;;5.13;;
22603;SDS011;11469;49.024;8.246;2023-02-22T05:06:30;8.73;;;4.43;;
22603;SDS011;11469;49.024;8.246;2023-02-22T05:08:55;11.85;;;6.03;;
22603;SDS011;11469;49.024;8.246;2023-02-22T05:11:22;15.85;;;5.55;;
22603;SDS011;11469;49.024;8.246;2023-02-22T05:13:48;9.38;;;5.30;;
22603;SDS011;11469;49.024;8.246;2023-02-22T05:16:13;10.73;;;4.63;;
22603;SDS011;11469;49.024;8.246;2023-02-22T05:18:39;11.38;;;5.70;;
22603;SDS011;11469;49.024;8.246;2023-02-22T05:21:05;11.68;;;5.90;;
22603;SDS011;11469;49.024;8.246;2023-02-22T05:23:31;11.57;;;6.05;;
22603;SDS011;11469;49.024;8.246;2023-02-22T05:25:57;12.95;;;5.63;;
22603;SDS011;11469;49.024;8.246;2023-02-22T05:28:22;9.80;;;4.90;;
22603;SDS011;11469;49.024;8.246;2023-02-22T05:30:48;18.17;;;5.13;;
22603;SDS011;11469;49.024;8.246;2023-02-22T05:33:13;10.70;;;5.13;;
22603;SDS011;11469;49.024;8.246;2023-02-22T05:35:39;9.18;;;5.15;;
22603;SDS011;11469;49.024;8.246;2023-02-22T05:38:04;10.80;;;5.55;;
22603;SDS011;11469;49.024;8.246;2023-02-22T05:40:30;17.30;;;6.22;;
22603;SDS011;11469;49.024;8.246;2023-02-22T05:42:56;10.90;;;5.80;;
22603;SDS011;11469;49.024;8.246;2023-02-22T05:45:23;15.18;;;6.03;;
22603;SDS011;11469;49.024;8.246;2023-02-22T05:47:51;11.98;;;6.47;;
22603;SDS011;11469;49.024;8.246;2023-02-22T05:50:17;14.65;;;6.85;;
22603;SDS011;11469;49.024;8.246;2023-02-22T05:52:43;11.32;;;5.72;;
22603;SDS011;11469;49.024;8.246;2023-02-22T05:55:10;12.82;;;5.90;;
22603;SDS011;11469;49.024;8.246;2023-02-22T05:57:38;13.65;;;6.40;;
22603;SDS011;11469;49.024;8.246;2023-02-22T06:00:04;14.75;;;6.15;;
22603;SDS011;11469;49.024;8.246;2023-02-22T06:02:31;15.77;;;6.93;;
22603;SDS011;11469;49.024;8.246;2023-02-22T06:04:57;12.05;;;6.45;;
22603;SDS011;11469;49.024;8.246;2023-02-22T06:07:23;12.75;;;6.68;;
22603;SDS011;11469;49.024;8.246;2023-02-22T06:09:49;13.63;;;6.28;;
22603;SDS011;11469;49.024;8.246;2023-02-22T06:12:15;31.83;;;8.85;;
22603;SDS011;11469;49.024;8.246;2023-02-22T06:14:41;26.30;;;9.52;;
22603;SDS011;11469;49.024;8.246;2023-02-22T06:17:10;21.60;;;8.77;;
22603;SDS011;11469;49.024;8.246;2023-02-22T06:19:37;20.13;;;8.32;;
22603;SDS011;11469;49.024;8.246;2023-02-22T06:22:04;17.42;;;8.57;;
22603;SDS011;11469;49.024;8.246;2023-02-22T06:24:30;18.20;;;7.53;;
22603;SDS011;11469;49.024;8.246;2023-02-22T06:26:56;17.08;;;7.30;;
22603;SDS011;11469;49.024;8.246;2023-02-22T06:29:24;18.17;;;8.00;;
22603;SDS011;11469;49.024;8.246;2023-02-22T06:31:50;17.83;;;9.30;;
22603;SDS011;11469;49.024;8.246;2023-02-22T06:34:16;18.25;;;9.20;;
22603;SDS011;11469;49.024;8.246;2023-02-22T06:36:42;24.35;;;8.38;;
22603;SDS011;11469;49.024;8.246;2023-02-22T06:39:07;15.95;;;8.00;;
22603;SDS011;11469;49.024;8.246;2023-02-22T06:41:36;15.18;;;7.88;;
22603;SDS011;11469;49.024;8.246;2023-02-22T06:44:02;19.52;;;8.90;;
22603;SDS011;11469;49.024;8.246;2023-02-22T06:46:29;14.15;;;8.43;;
22603;SDS011;11469;49.024;8.246;2023-02-22T06:48:54;18.38;;;9.02;;
22603;SDS011;11469;49.024;8.246;2023-02-22T06:51:22;13.75;;;6.72;;
22603;SDS011;11469;49.024;8.246;2023-02-22T06:53:47;15.07;;;7.60;;
22603;SDS011;11469;49.024;8.246;2023-02-22T06:56:13;13.85;;;6.75;;
22603;SDS011;11469;49.024;8.246;2023-02-22T06:58:38;11.73;;;6.57;;
22603;SDS011;11469;49.024;8.246;2023-02-22T07:01:03;15.07;;;7.05;;
22603;SDS011;11469;49.024;8.246;2023-02-22T07:03:31;15.40;;;7.38;;
22603;SDS011;11469;49.024;8.246;2023-02-22T07:05:58;13.45;;;6.93;;
22603;SDS011;11469;49.024;8.246;2023-02-22T07:08:23;18.40;;;7.28;;
22603;SDS011;11469;49.024;8.246;2023-02-22T07:10:48;12.93;;;7.35;;
22603;SDS011;11469;49.024;8.246;2023-02-22T07:13:14;13.43;;;7.75;;
22603;SDS011;11469;49.024;8.246;2023-02-22T07:15:40;15.38;;;8.05;;
22603;SDS011;11469;49.024;8.246;2023-02-22T07:18:06;16.60;;;8.77;;
22603;SDS011;11469;49.024;8.246;2023-02-22T07:20:32;17.13;;;8.75;;
22603;SDS011;11469;49.024;8.246;2023-02-22T07:22:58;22.33;;;8.85;;
22603;SDS011;11469;49.024;8.246;2023-02-22T07:25:23;25.00;;;10.63;;
22603;SDS011;11469;49.024;8.246;2023-02-22T07:27:49;20.52;;;10.25;;
22603;SDS011;11469;49.024;8.246;2023-02-22T07:32:49;21.88;;;10.52;;
22603;SDS011;11469;49.024;8.246;2023-02-22T07:35:18;23.23;;;11.38;;
22603;SDS011;11469;49.024;8.246;2023-02-22T07:37:54;25.48;;;11.00;;
22603;SDS011;11469;49.024;8.246;2023-02-22T07:40:20;21.85;;;11.02;;
22603;SDS011;11469;49.024;8.246;2023-02-22T07:42:50;23.55;;;10.43;;
22603;SDS011;11469;49.024;8.246;2023-02-22T07:45:15;25.17;;;13.15;;
22603;SDS011;11469;49.024;8.246;2023-02-22T07:47:41;24.95;;;13.43;;
22603;SDS011;11469;49.024;8.246;2023-02-22T07:50:07;37.45;;;14.32;;
22603;SDS011;11469;49.024;8.246;2023-02-22T07:52:32;27.88;;;13.88;;
22603;SDS011;11469;49.024;8.246;2023-02-22T07:54:57;48.83;;;15.15;;
22603;SDS011;11469;49.024;8.246;2023-02-22T07:57:24;37.80;;;16.95;;
22603;SDS011;11469;49.024;8.246;2023-02-22T07:59:49;35.28;;;16.90;;
22603;SDS011;11469;49.024;8.246;2023-02-22T08:02:15;37.42;;;18.77;;
22603;SDS011;11469;49.024;8.246;2023-02-22T08:04:41;37.42;;;19.15;;
22603;SDS011;11469;49.024;8.246;2023-02-22T08:07:06;44.83;;;18.83;;
22603;SDS011;11469;49.024;8.246;2023-02-22T08:09:32;41.20;;;20.05;;
22603;SDS011;11469;49.024;8.246;2023-02-22T08:11:57;38.47;;;19.77;;
22603;SDS011;11469;49.024;8.246;2023-02-22T08:14:23;44.55;;;19.20;;
22603;SDS011;11469;49.024;8.246;2023-02-22T08:16:48;34.63;;;18.90;;
22603;SDS011;11469;49.024;8.246;2023-02-22T08:19:14;44.33;;;18.02;;
22603;SDS011;11469;49.024;8.246;2023-02-22T08:21:40;38.42;;;19.23;;
22603;SDS011;11469;49.024;8.246;2023-02-22T08:24:05;43.83;;;18.08;;
22603;SDS011;11469;49.024;8.246;2023-02-22T08:26:33;30.05;;;16.75;;
22603;SDS011;11469;49.024;8.246;2023-02-22T08:28:58;24.90;;;14.73;;
22603;SDS011;11469;49.024;8.246;2023-02-22T08:31:23;31.92;;;17.42;;
22603;SDS011;11469;49.024;8.246;2023-02-22T08:33:49;37.38;;;16.02;;
22603;SDS011;11469;49.024;8.246;2023-02-22T08:36:14;28.65;;;16.85;;
22603;SDS011;11469;49.024;8.246;2023-02-22T08:38:40;31.45;;;17.40;;
22603;SDS011;11469;49.024;8.246;2023-02-22T08:41:05;31.60;;;17.17;;
22603;SDS011;11469;49.024;8.246;2023-02-22T08:43:31;37.90;;;17.45;;
22603;SDS011;11469;49.024;8.246;2023-02-22T08:45:56;31.15;;;16.73;;
22603;SDS011;11469;49.024;8.246;2023-02-22T08:48:21;30.15;;;16.58;;
22603;SDS011;11469;49.024;8.246;2023-02-22T08:50:47;29.42;;;16.10;;
22603;SDS011;11469;49.024;8.246;2023-02-22T08:53:13;32.70;;;16.58;;
22603;SDS011;11469;49.024;8.246;2023-02-22T08:55:39;35.42;;;16.33;;
22603;SDS011;11469;49.024;8.246;2023-02-22T08:58:06;26.77;;;14.90;;
22603;SDS011;11469;49.024;8.246;2023-02-22T09:00:35;32.63;;;16.00;;
22603;SDS011;11469;49.024;8.246;2023-02-22T09:03:03;33.20;;;15.77;;
22603;SDS011;11469;49.024;8.246;2023-02-22T09:05:29;28.75;;;13.65;;
22603;SDS011;11469;49.024;8.246;2023-02-22T09:07:55;35.53;;;16.52;;
22603;SDS011;11469;49.024;8.246;2023-02-22T09:10:22;22.48;;;14.30;;
22603;SDS011;11469;49.024;8.246;2023-02-22T09:12:53;28.38;;;15.15;;
22603;SDS011;11469;49.024;8.246;2023-02-22T09:15:19;29.25;;;16.45;;
22603;SDS011;11469;49.024;8.246;2023-02-22T09:17:46;30.90;;;14.15;;
22603;SDS011;11469;49.024;8.246;2023-02-22T09:20:12;36.10;;;14.10;;
22603;SDS011;11469;49.024;8.246;2023-02-22T09:22:38;34.67;;;14.43;;
22603;SDS011;11469;49.024;8.246;2023-02-22T09:25:04;27.67;;;13.38;;
22603;SDS011;11469;49.024;8.246;2023-02-22T09:27:30;29.20;;;13.93;;
22603;SDS011;11469;49.024;8.246;2023-02-22T09:29:56;25.33;;;13.95;;
22603;SDS011;11469;49.024;8.246;2023-02-22T09:32:24;34.60;;;14.27;;
22603;SDS011;11469;49.024;8.246;2023-02-22T09:34:52;31.00;;;14.38;;
22603;SDS011;11469;49.024;8.246;2023-02-22T09:37:18;27.38;;;14.25;;
22603;SDS011;11469;49.024;8.246;2023-02-22T09:39:44;30.67;;;14.52;;
22603;SDS011;11469;49.024;8.246;2023-02-22T09:45:02;23.45;;;12.88;;
22603;SDS011;11469;49.024;8.246;2023-02-22T09:47:46;28.38;;;13.27;;
22603;SDS011;11469;49.024;8.246;2023-02-22T09:50:23;26.77;;;13.43;;
22603;SDS011;11469;49.024;8.246;2023-02-22T09:52:55;33.25;;;14.57;;
22603;SDS011;11469;49.024;8.246;2023-02-22T09:58:13;26.25;;;14.40;;
22603;SDS011;11469;49.024;8.246;2023-02-22T10:00:42;26.42;;;14.50;;
22603;SDS011;11469;49.024;8.246;2023-02-22T10:03:21;33.15;;;15.30;;
22603;SDS011;11469;49.024;8.246;2023-02-22T10:05:55;30.02;;;13.48;;
22603;SDS011;11469;49.024;8.246;2023-02-22T10:08:27;25.58;;;13.40;;
22603;SDS011;11469;49.024;8.246;2023-02-22T10:11:10;33.75;;;12.25;;
22603;SDS011;11469;49.024;8.246;2023-02-22T10:19:45;27.98;;;11.43;;
22603;SDS011;11469;49.024;8.246;2023-02-22T10:22:34;22.75;;;11.82;;
22603;SDS011;11469;49.024;8.246;2023-02-22T10:25:11;25.75;;;12.15;;
22603;SDS011;11469;49.024;8.246;2023-02-22T10:33:09;21.17;;;12.48;;
22603;SDS011;11469;49.024;8.246;2023-02-22T10:35:39;22.65;;;10.95;;
22603;SDS011;11469;49.024;8.246;2023-02-22T10:38:10;27.27;;;11.35;;
22603;SDS011;11469;49.024;8.246;2023-02-22T10:40:42;33.13;;;12.52;;
22603;SDS011;11469;49.024;8.246;2023-02-22T10:43:12;21.20;;;11.15;;
22603;SDS011;11469;49.024;8.246;2023-02-22T10:45:38;22.33;;;9.85;;
22603;SDS011;11469;49.024;8.246;2023-02-22T10:48:04;25.98;;;10.20;;
22603;SDS011;11469;49.024;8.246;2023-02-22T10:50:33;22.67;;;10.00;;
22603;SDS011;11469;49.024;8.246;2023-02-22T10:53:01;20.20;;;10.00;;
22603;SDS011;11469;49.024;8.246;2023-02-22T10:55:26;19.90;;;9.57;;
22603;SDS011;11469;49.024;8.246;2023-02-22T10:57:58;17.05;;;9.05;;
22603;SDS011;11469;49.024;8.246;2023-02-22T11:00:29;17.70;;;9.20;;
22603;SDS011;11469;49.024;8.246;2023-02-22T11:03:17;23.27;;;9.65;;
22603;SDS011;11469;49.024;8.246;2023-02-22T11:05:45;21.83;;;9.45;;
22603;SDS011;11469;49.024;8.246;2023-02-22T11:10:45;20.23;;;9.80;;
22603;SDS011;11469;49.024;8.246;2023-02-22T11:13:15;18.85;;;8.73;;
22603;SDS011;11469;49.024;8.246;2023-02-22T11:15:49;21.67;;;10.10;;
22603;SDS011;11469;49.024;8.246;2023-02-22T11:18:23;20.77;;;9.63;;
22603;SDS011;11469;49.024;8.246;2023-02-22T11:20:59;21.08;;;9.18;;
22603;SDS011;11469;49.024;8.246;2023-02-22T11:23:27;29.38;;;11.23;;
22603;SDS011;11469;49.024;8.246;2023-02-22T11:26:00;31.75;;;10.35;;
22603;SDS011;11469;49.024;8.246;2023-02-22T11:28:41;23.48;;;10.00;;
22603;SDS011;11469;49.024;8.246;2023-02-22T11:34:02;23.25;;;10.15;;
22603;SDS011;11469;49.024;8.246;2023-02-22T11:36:37;20.00;;;9.98;;
22603;SDS011;11469;49.024;8.246;2023-02-22T11:39:10;16.58;;;9.27;;
22603;SDS011;11469;49.024;8.246;2023-02-22T11:41:58;25.13;;;10.05;;
22603;SDS011;11469;49.024;8.246;2023-02-22T11:44:44;17.75;;;8.68;;
22603;SDS011;11469;49.024;8.246;2023-02-22T11:47:10;20.02;;;10.00;;
22603;SDS011;11469;49.024;8.246;2023-02-22T11:49:37;23.20;;;10.55;;
22603;SDS011;11469;49.024;8.246;2023-02-22T11:55:17;23.10;;;10.15;;
22603;SDS011;11469;49.024;8.246;2023-02-22T12:17:45;23.75;;;10.27;;
22603;SDS011;11469;49.024;8.246;2023-02-22T12:20:19;24.33;;;12.73;;
22603;SDS011;11469;49.024;8.246;2023-02-22T12:23:01;22.23;;;11.15;;
22603;SDS011;11469;49.024;8.246;2023-02-22T12:25:40;23.52;;;10.85;;
22603;SDS011;11469;49.024;8.246;2023-02-22T12:28:21;20.60;;;10.52;;
22603;SDS011;11469;49.024;8.246;2023-02-22T12:31:02;27.02;;;11.25;;
22603;SDS011;11469;49.024;8.246;2023-02-22T12:34:08;19.88;;;10.38;;
22603;SDS011;11469;49.024;8.246;2023-02-22T12:37:00;22.02;;;10.98;;
22603;SDS011;11469;49.024;8.246;2023-02-22T12:39:37;22.23;;;10.63;;
22603;SDS011;11469;49.024;8.246;2023-02-22T12:42:14;23.77;;;11.30;;
22603;SDS011;11469;49.024;8.246;2023-02-22T12:47:17;21.48;;;10.75;;
22603;SDS011;11469;49.024;8.246;2023-02-22T12:49:49;24.23;;;11.65;;
22603;SDS011;11469;49.024;8.246;2023-02-22T13:06:13;23.42;;;9.73;;
22603;SDS011;11469;49.024;8.246;2023-02-22T13:20:00;23.30;;;10.80;;
22603;SDS011;11469;49.024;8.246;2023-02-22T13:22:54;27.58;;;11.95;;
22603;SDS011;11469;49.024;8.246;2023-02-22T13:31:07;23.20;;;11.70;;
22603;SDS011;11469;49.024;8.246;2023-02-22T13:39:22;27.10;;;11.20;;
22603;SDS011;11469;49.024;8.246;2023-02-22T13:45:03;22.98;;;11.90;;
22603;SDS011;11469;49.024;8.246;2023-02-22T13:51:05;27.55;;;12.00;;
22603;SDS011;11469;49.024;8.246;2023-02-22T13:53:49;24.67;;;11.38;;
22603;SDS011;11469;49.024;8.246;2023-02-22T13:56:18;22.38;;;11.02;;
22603;SDS011;11469;49.024;8.246;2023-02-22T13:58:57;26.73;;;11.85;;
22603;SDS011;11469;49.024;8.246;2023-02-22T14:06:51;30.42;;;13.23;;
22603;SDS011;11469;49.024;8.246;2023-02-22T14:09:40;27.25;;;12.90;;
22603;SDS011;11469;49.024;8.246;2023-02-22T14:17:59;27.23;;;11.60;;
22603;SDS011;11469;49.024;8.246;2023-02-22T14:20:30;20.38;;;10.98;;
22603;SDS011;11469;49.024;8.246;2023-02-22T14:25:56;19.05;;;11.25;;
22603;SDS011;11469;49.024;8.246;2023-02-22T14:28:39;25.00;;;11.85;;
22603;SDS011;11469;49.024;8.246;2023-02-22T14:31:11;20.30;;;11.45;;
22603;SDS011;11469;49.024;8.246;2023-02-22T14:36:13;27.00;;;11.43;;
22603;SDS011;11469;49.024;8.246;2023-02-22T14:38:40;19.02;;;11.00;;
22603;SDS011;11469;49.024;8.246;2023-02-22T14:41:08;25.15;;;11.90;;
22603;SDS011;11469;49.024;8.246;2023-02-22T14:43:35;26.35;;;13.98;;
22603;SDS011;11469;49.024;8.246;2023-02-22T14:46:02;25.50;;;12.95;;
22603;SDS011;11469;49.024;8.246;2023-02-22T14:48:35;22.92;;;11.68;;
22603;SDS011;11469;49.024;8.246;2023-02-22T14:53:51;27.00;;;12.82;;
22603;SDS011;11469;49.024;8.246;2023-02-22T14:56:22;20.95;;;10.90;;
22603;SDS011;11469;49.024;8.246;2023-02-22T15:01:37;22.98;;;12.70;;
22603;SDS011;11469;49.024;8.246;2023-02-22T15:04:19;22.75;;;12.73;;
22603;SDS011;11469;49.024;8.246;2023-02-22T15:06:51;21.00;;;11.60;;
22603;SDS011;11469;49.024;8.246;2023-02-22T15:09:19;26.33;;;13.13;;
22603;SDS011;11469;49.024;8.246;2023-02-22T15:11:53;29.45;;;12.52;;
22603;SDS011;11469;49.024;8.246;2023-02-22T15:14:29;23.73;;;12.57;;
22603;SDS011;11469;49.024;8.246;2023-02-22T15:17:00;21.83;;;13.10;;
22603;SDS011;11469;49.024;8.246;2023-02-22T15:19:31;25.98;;;12.07;;
22603;SDS011;11469;49.024;8.246;2023-02-22T15:21:59;25.63;;;12.52;;
22603;SDS011;11469;49.024;8.246;2023-02-22T15:26:53;25.45;;;12.50;;
22603;SDS011;11469;49.024;8.246;2023-02-22T15:29:21;22.88;;;12.05;;
22603;SDS011;11469;49.024;8.246;2023-02-22T15:31:53;24.50;;;13.07;;
22603;SDS011;11469;49.024;8.246;2023-02-22T15:34:27;24.80;;;11.93;;
22603;SDS011;11469;49.024;8.246;2023-02-22T15:36:58;23.83;;;13.45;;
22603;SDS011;11469;49.024;8.246;2023-02-22T15:39:38;20.25;;;12.60;;
22603;SDS011;11469;49.024;8.246;2023-02-22T15:42:11;23.20;;;13.63;;
22603;SDS011;11469;49.024;8.246;2023-02-22T15:44:51;22.13;;;13.70;;
22603;SDS011;11469;49.024;8.246;2023-02-22T15:47:19;22.50;;;14.07;;
22603;SDS011;11469;49.024;8.246;2023-02-22T15:52:57;26.60;;;15.40;;
22603;SDS011;11469;49.024;8.246;2023-02-22T15:58:08;24.08;;;15.48;;
22603;SDS011;11469;49.024;8.246;2023-02-22T16:00:40;28.02;;;15.02;;
22603;SDS011;11469;49.024;8.246;2023-02-22T16:03:11;32.28;;;17.42;;
22603;SDS011;11469;49.024;8.246;2023-02-22T16:05:41;37.10;;;19.00;;
22603;SDS011;11469;49.024;8.246;2023-02-22T16:08:17;27.60;;;18.27;;
22603;SDS011;11469;49.024;8.246;2023-02-22T16:11:20;37.72;;;18.08;;
22603;SDS011;11469;49.024;8.246;2023-02-22T16:13:44;26.55;;;16.13;;
22603;SDS011;11469;49.024;8.246;2023-02-22T16:18:44;30.08;;;16.95;;
22603;SDS011;11469;49.024;8.246;2023-02-22T16:21:11;31.73;;;17.02;;
22603;SDS011;11469;49.024;8.246;2023-02-22T16:23:48;33.42;;;17.13;;
22603;SDS011;11469;49.024;8.246;2023-02-22T16:26:25;31.55;;;20.27;;
22603;SDS011;11469;49.024;8.246;2023-02-22T16:29:03;41.67;;;22.35;;
22603;SDS011;11469;49.024;8.246;2023-02-22T16:31:32;39.85;;;20.42;;
22603;SDS011;11469;49.024;8.246;2023-02-22T16:34:03;33.13;;;19.58;;
22603;SDS011;11469;49.024;8.246;2023-02-22T16:36:37;31.00;;;19.17;;
22603;SDS011;11469;49.024;8.246;2023-02-22T16:39:05;34.65;;;18.92;;
22603;SDS011;11469;49.024;8.246;2023-02-22T16:41:31;28.83;;;17.98;;
22603;SDS011;11469;49.024;8.246;2023-02-22T16:43:57;32.00;;;18.92;;
22603;SDS011;11469;49.024;8.246;2023-02-22T16:46:23;34.95;;;19.50;;
22603;SDS011;11469;49.024;8.246;2023-02-22T16:48:49;35.30;;;20.40;;
22603;SDS011;11469;49.024;8.246;2023-02-22T16:51:21;29.17;;;19.83;;
22603;SDS011;11469;49.024;8.246;2023-02-22T16:53:50;37.95;;;21.13;;
22603;SDS011;11469;49.024;8.246;2023-02-22T16:56:18;40.50;;;20.10;;
22603;SDS011;11469;49.024;8.246;2023-02-22T16:58:45;35.05;;;21.05;;
22603;SDS011;11469;49.024;8.246;2023-02-22T17:01:14;37.92;;;19.42;;
22603;SDS011;11469;49.024;8.246;2023-02-22T17:03:40;38.30;;;20.15;;
22603;SDS011;11469;49.024;8.246;2023-02-22T17:06:05;35.13;;;19.63;;
22603;SDS011;11469;49.024;8.246;2023-02-22T17:08:34;32.13;;;18.95;;
22603;SDS011;11469;49.024;8.246;2023-02-22T17:11:01;35.10;;;19.70;;
22603;SDS011;11469;49.024;8.246;2023-02-22T17:13:27;32.55;;;19.80;;
22603;SDS011;11469;49.024;8.246;2023-02-22T17:15:53;35.53;;;20.67;;
22603;SDS011;11469;49.024;8.246;2023-02-22T17:18:20;38.67;;;21.85;;
22603;SDS011;11469;49.024;8.246;2023-02-22T17:20:47;37.05;;;20.63;;
22603;SDS011;11469;49.024;8.246;2023-02-22T17:23:13;31.73;;;19.67;;
22603;SDS011;11469;49.024;8.246;2023-02-22T17:25:41;41.90;;;22.10;;